sensor_id;sensor_type;location;lat;lon;timestamp;P1;durP1;ratioP1;P2;durP2;ratioP2
75603;SDS011;64187;51.010;13.792;2023-04-15T00:02:40;1.77;;;1.27;;
75603;SDS011;64187;51.010;13.792;2023-04-15T00:07:39;1.35;;;1.23;;
75603;SDS011;64187;51.010;13.792;2023-04-15T00:12:38;1.65;;;1.40;;
75603;SDS011;64187;51.010;13.792;2023-04-15T00:17:38;1.20;;;1.08;;
75603;SDS011;64187;51.010;13.792;2023-04-15T00:22:37;2.40;;;1.70;;
75603;SDS011;64187;51.010;13.792;2023-04-15T00:27:37;1.77;;;1.30;;
75603;SDS011;64187;51.010;13.792;2023-04-15T00:32:36;1.40;;;1.30;;
75603;SDS011;64187;51.010;13.792;2023-04-15T00:37:35;1.80;;;0.93;;
75603;SDS011;64187;51.010;13.792;2023-04-15T00:42:34;1.60;;;1.35;;
75603;SDS011;64187;51.010;13.792;2023-04-15T00:47:34;1.67;;;1.30;;
75603;SDS011;64187;51.010;13.792;2023-04-15T00:52:34;1.38;;;0.82;;
75603;SDS011;64187;51.010;13.792;2023-04-15T00:57:34;1.23;;;0.98;;
75603;SDS011;64187;51.010;13.792;2023-04-15T01:02:34;1.20;;;1.10;;
75603;SDS011;64187;51.010;13.792;2023-04-15T01:07:34;1.50;;;1.10;;
75603;SDS011;64187;51.010;13.792;2023-04-15T01:12:33;1.42;;;1.20;;
75603;SDS011;64187;51.010;13.792;2023-04-15T01:17:33;1.67;;;0.95;;
75603;SDS011;64187;51.010;13.792;2023-04-15T01:22:32;1.77;;;1.67;;
75603;SDS011;64187;51.010;13.792;2023-04-15T01:27:32;3.70;;;1.15;;
75603;SDS011;64187;51.010;13.792;2023-04-15T01:32:33;2.13;;;1.42;;
75603;SDS011;64187;51.010;13.792;2023-04-15T01:37:32;1.88;;;1.70;;
75603;SDS011;64187;51.010;13.792;2023-04-15T01:42:31;2.50;;;1.95;;
75603;SDS011;64187;51.010;13.792;2023-04-15T01:47:30;2.05;;;1.60;;
75603;SDS011;64187;51.010;13.792;2023-04-15T01:52:29;2.30;;;1.60;;
75603;SDS011;64187;51.010;13.792;2023-04-15T01:57:28;2.22;;;1.60;;
75603;SDS011;64187;51.010;13.792;2023-04-15T02:02:28;2.10;;;1.65;;
75603;SDS011;64187;51.010;13.792;2023-04-15T02:07:28;2.40;;;1.60;;
75603;SDS011;64187;51.010;13.792;2023-04-15T02:12:29;1.65;;;1.50;;
75603;SDS011;64187;51.010;13.792;2023-04-15T02:17:28;2.83;;;1.88;;
75603;SDS011;64187;51.010;13.792;2023-04-15T02:22:27;3.05;;;2.03;;
75603;SDS011;64187;51.010;13.792;2023-04-15T02:27:27;2.85;;;2.03;;
75603;SDS011;64187;51.010;13.792;2023-04-15T02:32:26;3.53;;;2.22;;
75603;SDS011;64187;51.010;13.792;2023-04-15T02:37:26;2.15;;;1.52;;
75603;SDS011;64187;51.010;13.792;2023-04-15T02:42:26;1.58;;;1.42;;
75603;SDS011;64187;51.010;13.792;2023-04-15T02:47:26;3.15;;;1.60;;
75603;SDS011;64187;51.010;13.792;2023-04-15T02:52:25;2.90;;;1.48;;
75603;SDS011;64187;51.010;13.792;2023-04-15T02:57:24;1.90;;;1.45;;
75603;SDS011;64187;51.010;13.792;2023-04-15T03:02:22;1.95;;;1.55;;
75603;SDS011;64187;51.010;13.792;2023-04-15T03:07:22;2.10;;;1.52;;
75603;SDS011;64187;51.010;13.792;2023-04-15T03:12:21;2.15;;;1.80;;
75603;SDS011;64187;51.010;13.792;2023-04-15T03:17:22;2.40;;;2.20;;
75603;SDS011;64187;51.010;13.792;2023-04-15T03:22:21;1.70;;;1.48;;
75603;SDS011;64187;51.010;13.792;2023-04-15T03:27:23;2.58;;;1.60;;
75603;SDS011;64187;51.010;13.792;2023-04-15T03:32:25;2.22;;;1.60;;
75603;SDS011;64187;51.010;13.792;2023-04-15T03:37:24;1.80;;;1.35;;
75603;SDS011;64187;51.010;13.792;2023-04-15T03:42:23;1.90;;;1.67;;
75603;SDS011;64187;51.010;13.792;2023-04-15T03:47:22;6.88;;;1.70;;
75603;SDS011;64187;51.010;13.792;2023-04-15T03:52:21;1.65;;;1.40;;
75603;SDS011;64187;51.010;13.792;2023-04-15T03:57:20;1.17;;;1.08;;
75603;SDS011;64187;51.010;13.792;2023-04-15T04:02:19;1.55;;;1.20;;
75603;SDS011;64187;51.010;13.792;2023-04-15T04:07:18;1.35;;;1.25;;
75603;SDS011;64187;51.010;13.792;2023-04-15T04:12:17;1.13;;;0.90;;
75603;SDS011;64187;51.010;13.792;2023-04-15T04:17:16;1.50;;;1.30;;
75603;SDS011;64187;51.010;13.792;2023-04-15T04:22:15;1.40;;;1.30;;
75603;SDS011;64187;51.010;13.792;2023-04-15T04:27:14;1.40;;;1.13;;
75603;SDS011;64187;51.010;13.792;2023-04-15T04:32:13;1.65;;;1.55;;
75603;SDS011;64187;51.010;13.792;2023-04-15T04:37:12;1.63;;;1.50;;
75603;SDS011;64187;51.010;13.792;2023-04-15T04:42:11;2.97;;;1.52;;
75603;SDS011;64187;51.010;13.792;2023-04-15T04:47:10;3.00;;;2.15;;
75603;SDS011;64187;51.010;13.792;2023-04-15T04:52:09;3.70;;;1.90;;
75603;SDS011;64187;51.010;13.792;2023-04-15T04:57:08;2.13;;;1.83;;
75603;SDS011;64187;51.010;13.792;2023-04-15T05:02:07;3.05;;;1.90;;
75603;SDS011;64187;51.010;13.792;2023-04-15T05:07:06;2.17;;;1.38;;
75603;SDS011;64187;51.010;13.792;2023-04-15T05:12:05;2.13;;;1.60;;
75603;SDS011;64187;51.010;13.792;2023-04-15T05:17:06;2.13;;;1.60;;
75603;SDS011;64187;51.010;13.792;2023-04-15T05:22:05;1.70;;;1.27;;
75603;SDS011;64187;51.010;13.792;2023-04-15T05:27:05;1.50;;;1.05;;
75603;SDS011;64187;51.010;13.792;2023-04-15T05:32:05;1.20;;;1.10;;
75603;SDS011;64187;51.010;13.792;2023-04-15T05:37:04;1.77;;;1.15;;
75603;SDS011;64187;51.010;13.792;2023-04-15T05:42:03;2.63;;;1.33;;
75603;SDS011;64187;51.010;13.792;2023-04-15T05:47:03;2.30;;;0.90;;
75603;SDS011;64187;51.010;13.792;2023-04-15T05:52:03;2.70;;;1.13;;
75603;SDS011;64187;51.010;13.792;2023-04-15T05:57:02;1.10;;;1.00;;
75603;SDS011;64187;51.010;13.792;2023-04-15T06:02:01;1.25;;;0.90;;
75603;SDS011;64187;51.010;13.792;2023-04-15T06:07:00;0.80;;;0.40;;
75603;SDS011;64187;51.010;13.792;2023-04-15T06:11:59;0.77;;;0.77;;
75603;SDS011;64187;51.010;13.792;2023-04-15T06:16:59;1.52;;;0.70;;
75603;SDS011;64187;51.010;13.792;2023-04-15T06:21:58;0.60;;;0.60;;
75603;SDS011;64187;51.010;13.792;2023-04-15T06:26:57;0.60;;;0.60;;
75603;SDS011;64187;51.010;13.792;2023-04-15T06:31:56;0.60;;;0.50;;
75603;SDS011;64187;51.010;13.792;2023-04-15T06:36:55;1.80;;;0.85;;
75603;SDS011;64187;51.010;13.792;2023-04-15T06:41:54;1.20;;;0.60;;
75603;SDS011;64187;51.010;13.792;2023-04-15T06:46:54;1.30;;;0.70;;
75603;SDS011;64187;51.010;13.792;2023-04-15T06:51:53;0.95;;;0.70;;
75603;SDS011;64187;51.010;13.792;2023-04-15T06:56:51;0.55;;;0.50;;
75603;SDS011;64187;51.010;13.792;2023-04-15T07:01:50;0.73;;;0.30;;
75603;SDS011;64187;51.010;13.792;2023-04-15T07:06:49;0.82;;;0.82;;
75603;SDS011;64187;51.010;13.792;2023-04-15T07:11:48;1.90;;;0.60;;
75603;SDS011;64187;51.010;13.792;2023-04-15T07:16:47;0.63;;;0.60;;
75603;SDS011;64187;51.010;13.792;2023-04-15T07:21:46;0.77;;;0.77;;
75603;SDS011;64187;51.010;13.792;2023-04-15T07:26:45;0.93;;;0.90;;
75603;SDS011;64187;51.010;13.792;2023-04-15T07:31:44;1.20;;;0.50;;
75603;SDS011;64187;51.010;13.792;2023-04-15T07:36:43;0.70;;;0.70;;
75603;SDS011;64187;51.010;13.792;2023-04-15T07:42:28;1.33;;;0.70;;
75603;SDS011;64187;51.010;13.792;2023-04-15T07:47:27;1.30;;;0.90;;
75603;SDS011;64187;51.010;13.792;2023-04-15T07:52:27;1.08;;;0.68;;
75603;SDS011;64187;51.010;13.792;2023-04-15T07:57:25;1.40;;;1.30;;
75603;SDS011;64187;51.010;13.792;2023-04-15T08:02:24;2.00;;;1.70;;
75603;SDS011;64187;51.010;13.792;2023-04-15T08:07:24;1.40;;;1.10;;
75603;SDS011;64187;51.010;13.792;2023-04-15T08:12:23;2.92;;;1.70;;
75603;SDS011;64187;51.010;13.792;2023-04-15T08:17:23;1.83;;;1.35;;
75603;SDS011;64187;51.010;13.792;2023-04-15T08:22:22;1.30;;;1.20;;
75603;SDS011;64187;51.010;13.792;2023-04-15T08:27:21;1.27;;;1.02;;
75603;SDS011;64187;51.010;13.792;2023-04-15T08:32:20;1.60;;;1.35;;
75603;SDS011;64187;51.010;13.792;2023-04-15T08:37:20;1.50;;;1.20;;
75603;SDS011;64187;51.010;13.792;2023-04-15T08:42:22;1.50;;;1.40;;
75603;SDS011;64187;51.010;13.792;2023-04-15T08:47:34;1.88;;;1.48;;
75603;SDS011;64187;51.010;13.792;2023-04-15T08:52:36;2.38;;;2.17;;
75603;SDS011;64187;51.010;13.792;2023-04-15T08:57:35;2.20;;;2.00;;
75603;SDS011;64187;51.010;13.792;2023-04-15T09:02:35;2.60;;;2.20;;
75603;SDS011;64187;51.010;13.792;2023-04-15T09:07:35;3.50;;;3.03;;
75603;SDS011;64187;51.010;13.792;2023-04-15T09:12:34;3.05;;;2.75;;
75603;SDS011;64187;51.010;13.792;2023-04-15T09:17:34;4.10;;;3.70;;
75603;SDS011;64187;51.010;13.792;2023-04-15T09:22:33;3.67;;;3.15;;
75603;SDS011;64187;51.010;13.792;2023-04-15T09:27:35;4.80;;;3.47;;
75603;SDS011;64187;51.010;13.792;2023-04-15T09:32:34;3.88;;;3.15;;
75603;SDS011;64187;51.010;13.792;2023-04-15T09:38:04;3.55;;;3.08;;
75603;SDS011;64187;51.010;13.792;2023-04-15T09:43:05;3.53;;;3.22;;
75603;SDS011;64187;51.010;13.792;2023-04-15T09:48:16;3.38;;;3.00;;
75603;SDS011;64187;51.010;13.792;2023-04-15T09:53:20;3.28;;;2.88;;
75603;SDS011;64187;51.010;13.792;2023-04-15T09:58:21;3.67;;;3.17;;
75603;SDS011;64187;51.010;13.792;2023-04-15T10:03:24;4.55;;;3.60;;
75603;SDS011;64187;51.010;13.792;2023-04-15T10:08:26;4.28;;;3.38;;
75603;SDS011;64187;51.010;13.792;2023-04-15T10:13:29;3.83;;;2.63;;
75603;SDS011;64187;51.010;13.792;2023-04-15T10:18:34;4.35;;;3.10;;
75603;SDS011;64187;51.010;13.792;2023-04-15T10:23:35;6.00;;;3.55;;
75603;SDS011;64187;51.010;13.792;2023-04-15T10:28:35;5.50;;;4.18;;
75603;SDS011;64187;51.010;13.792;2023-04-15T10:33:34;4.18;;;3.53;;
75603;SDS011;64187;51.010;13.792;2023-04-15T10:38:37;3.42;;;3.03;;
75603;SDS011;64187;51.010;13.792;2023-04-15T10:43:36;4.18;;;3.83;;
75603;SDS011;64187;51.010;13.792;2023-04-15T10:48:35;4.20;;;3.80;;
75603;SDS011;64187;51.010;13.792;2023-04-15T10:53:34;4.38;;;3.40;;
75603;SDS011;64187;51.010;13.792;2023-04-15T10:58:41;4.30;;;3.30;;
75603;SDS011;64187;51.010;13.792;2023-04-15T11:03:41;3.75;;;2.97;;
75603;SDS011;64187;51.010;13.792;2023-04-15T11:08:57;3.63;;;3.08;;
75603;SDS011;64187;51.010;13.792;2023-04-15T11:14:01;3.10;;;2.80;;
75603;SDS011;64187;51.010;13.792;2023-04-15T11:19:00;2.85;;;2.38;;
75603;SDS011;64187;51.010;13.792;2023-04-15T11:23:59;2.78;;;2.22;;
75603;SDS011;64187;51.010;13.792;2023-04-15T11:29:00;3.05;;;2.75;;
75603;SDS011;64187;51.010;13.792;2023-04-15T11:33:59;2.78;;;2.40;;
75603;SDS011;64187;51.010;13.792;2023-04-15T11:39:01;2.50;;;1.80;;
75603;SDS011;64187;51.010;13.792;2023-04-15T11:44:14;3.13;;;2.50;;
75603;SDS011;64187;51.010;13.792;2023-04-15T11:49:27;2.90;;;2.55;;
75603;SDS011;64187;51.010;13.792;2023-04-15T11:54:28;3.15;;;2.55;;
75603;SDS011;64187;51.010;13.792;2023-04-15T11:59:26;2.38;;;2.17;;
75603;SDS011;64187;51.010;13.792;2023-04-15T12:04:43;4.15;;;2.72;;
75603;SDS011;64187;51.010;13.792;2023-04-15T12:09:43;2.53;;;2.30;;
75603;SDS011;64187;51.010;13.792;2023-04-15T12:14:55;2.85;;;2.42;;
75603;SDS011;64187;51.010;13.792;2023-04-15T12:19:55;4.32;;;2.40;;
75603;SDS011;64187;51.010;13.792;2023-04-15T12:24:54;2.42;;;2.20;;
75603;SDS011;64187;51.010;13.792;2023-04-15T12:30:02;2.92;;;2.22;;
75603;SDS011;64187;51.010;13.792;2023-04-15T12:35:02;2.15;;;1.95;;
75603;SDS011;64187;51.010;13.792;2023-04-15T12:40:01;2.38;;;2.17;;
75603;SDS011;64187;51.010;13.792;2023-04-15T12:45:00;2.03;;;1.83;;
75603;SDS011;64187;51.010;13.792;2023-04-15T12:49:59;1.55;;;1.27;;
75603;SDS011;64187;51.010;13.792;2023-04-15T12:54:58;2.20;;;1.88;;
75603;SDS011;64187;51.010;13.792;2023-04-15T12:59:57;2.33;;;1.70;;
75603;SDS011;64187;51.010;13.792;2023-04-15T13:04:56;2.00;;;1.80;;
75603;SDS011;64187;51.010;13.792;2023-04-15T13:09:55;2.63;;;1.60;;
75603;SDS011;64187;51.010;13.792;2023-04-15T13:14:54;2.63;;;2.00;;
75603;SDS011;64187;51.010;13.792;2023-04-15T13:19:53;2.97;;;2.22;;
75603;SDS011;64187;51.010;13.792;2023-04-15T13:24:52;3.28;;;2.00;;
75603;SDS011;64187;51.010;13.792;2023-04-15T13:29:51;1.98;;;1.80;;
75603;SDS011;64187;51.010;13.792;2023-04-15T13:34:50;3.30;;;1.95;;
75603;SDS011;64187;51.010;13.792;2023-04-15T13:39:49;2.72;;;1.60;;
75603;SDS011;64187;51.010;13.792;2023-04-15T13:44:51;2.50;;;2.05;;
75603;SDS011;64187;51.010;13.792;2023-04-15T13:49:49;2.97;;;2.13;;
75603;SDS011;64187;51.010;13.792;2023-04-15T13:54:50;2.00;;;1.80;;
75603;SDS011;64187;51.010;13.792;2023-04-15T14:00:09;2.95;;;1.77;;
75603;SDS011;64187;51.010;13.792;2023-04-15T14:05:09;2.15;;;1.95;;
75603;SDS011;64187;51.010;13.792;2023-04-15T14:10:08;1.42;;;1.15;;
75603;SDS011;64187;51.010;13.792;2023-04-15T14:15:07;2.15;;;1.85;;
75603;SDS011;64187;51.010;13.792;2023-04-15T14:20:07;2.05;;;1.58;;
75603;SDS011;64187;51.010;13.792;2023-04-15T14:25:07;2.35;;;1.98;;
75603;SDS011;64187;51.010;13.792;2023-04-15T14:30:06;1.60;;;1.50;;
75603;SDS011;64187;51.010;13.792;2023-04-15T14:35:05;2.45;;;2.25;;
75603;SDS011;64187;51.010;13.792;2023-04-15T14:40:04;2.03;;;1.73;;
75603;SDS011;64187;51.010;13.792;2023-04-15T14:45:04;2.08;;;1.67;;
75603;SDS011;64187;51.010;13.792;2023-04-15T14:50:03;2.10;;;1.83;;
75603;SDS011;64187;51.010;13.792;2023-04-15T14:55:06;1.77;;;1.60;;
75603;SDS011;64187;51.010;13.792;2023-04-15T15:00:08;1.85;;;1.60;;
75603;SDS011;64187;51.010;13.792;2023-04-15T15:05:13;2.00;;;1.58;;
75603;SDS011;64187;51.010;13.792;2023-04-15T15:10:12;2.50;;;1.60;;
75603;SDS011;64187;51.010;13.792;2023-04-15T15:15:11;1.50;;;1.40;;
75603;SDS011;64187;51.010;13.792;2023-04-15T15:20:26;1.38;;;1.27;;
75603;SDS011;64187;51.010;13.792;2023-04-15T15:25:25;1.98;;;1.83;;
75603;SDS011;64187;51.010;13.792;2023-04-15T15:30:24;1.80;;;1.65;;
75603;SDS011;64187;51.010;13.792;2023-04-15T15:35:23;1.77;;;1.55;;
75603;SDS011;64187;51.010;13.792;2023-04-15T15:40:23;2.15;;;1.95;;
75603;SDS011;64187;51.010;13.792;2023-04-15T15:45:22;2.17;;;2.00;;
75603;SDS011;64187;51.010;13.792;2023-04-15T15:50:21;1.80;;;1.52;;
75603;SDS011;64187;51.010;13.792;2023-04-15T15:55:20;1.90;;;1.65;;
75603;SDS011;64187;51.010;13.792;2023-04-15T16:00:19;2.20;;;1.88;;
75603;SDS011;64187;51.010;13.792;2023-04-15T16:05:18;2.13;;;1.92;;
75603;SDS011;64187;51.010;13.792;2023-04-15T16:10:17;2.20;;;2.00;;
75603;SDS011;64187;51.010;13.792;2023-04-15T16:15:16;2.38;;;1.90;;
75603;SDS011;64187;51.010;13.792;2023-04-15T16:20:15;2.38;;;1.90;;
75603;SDS011;64187;51.010;13.792;2023-04-15T16:25:14;2.00;;;1.67;;
75603;SDS011;64187;51.010;13.792;2023-04-15T16:30:13;1.25;;;1.05;;
75603;SDS011;64187;51.010;13.792;2023-04-15T16:35:12;2.20;;;1.80;;
75603;SDS011;64187;51.010;13.792;2023-04-15T16:40:13;2.63;;;2.33;;
75603;SDS011;64187;51.010;13.792;2023-04-15T16:45:12;3.60;;;2.28;;
75603;SDS011;64187;51.010;13.792;2023-04-15T16:50:11;2.38;;;2.17;;
75603;SDS011;64187;51.010;13.792;2023-04-15T16:55:10;3.83;;;2.60;;
75603;SDS011;64187;51.010;13.792;2023-04-15T17:00:09;4.22;;;2.67;;
75603;SDS011;64187;51.010;13.792;2023-04-15T17:05:11;2.47;;;2.13;;
75603;SDS011;64187;51.010;13.792;2023-04-15T17:10:10;3.33;;;2.25;;
75603;SDS011;64187;51.010;13.792;2023-04-15T17:15:11;2.40;;;2.20;;
75603;SDS011;64187;51.010;13.792;2023-04-15T17:20:10;2.67;;;2.22;;
75603;SDS011;64187;51.010;13.792;2023-04-15T17:25:09;3.78;;;2.88;;
75603;SDS011;64187;51.010;13.792;2023-04-15T17:30:08;3.65;;;2.20;;
75603;SDS011;64187;51.010;13.792;2023-04-15T17:35:08;2.33;;;1.90;;
75603;SDS011;64187;51.010;13.792;2023-04-15T17:40:08;2.40;;;2.08;;
75603;SDS011;64187;51.010;13.792;2023-04-15T17:45:07;2.58;;;2.38;;
75603;SDS011;64187;51.010;13.792;2023-04-15T17:50:07;7.53;;;6.25;;
75603;SDS011;64187;51.010;13.792;2023-04-15T17:55:06;5.88;;;5.22;;
75603;SDS011;64187;51.010;13.792;2023-04-15T18:00:05;3.88;;;2.63;;
75603;SDS011;64187;51.010;13.792;2023-04-15T18:05:10;2.60;;;2.40;;
75603;SDS011;64187;51.010;13.792;2023-04-15T18:10:09;2.92;;;2.38;;
75603;SDS011;64187;51.010;13.792;2023-04-15T18:15:09;4.25;;;3.15;;
75603;SDS011;64187;51.010;13.792;2023-04-15T18:20:08;4.30;;;2.72;;
75603;SDS011;64187;51.010;13.792;2023-04-15T18:25:07;4.18;;;3.38;;
75603;SDS011;64187;51.010;13.792;2023-04-15T18:30:07;5.10;;;2.92;;
75603;SDS011;64187;51.010;13.792;2023-04-15T18:35:07;4.13;;;3.28;;
75603;SDS011;64187;51.010;13.792;2023-04-15T18:40:07;5.45;;;3.88;;
75603;SDS011;64187;51.010;13.792;2023-04-15T18:45:06;4.72;;;3.45;;
75603;SDS011;64187;51.010;13.792;2023-04-15T18:50:06;5.82;;;4.07;;
75603;SDS011;64187;51.010;13.792;2023-04-15T18:55:05;6.35;;;5.30;;
75603;SDS011;64187;51.010;13.792;2023-04-15T19:00:04;8.32;;;6.93;;
75603;SDS011;64187;51.010;13.792;2023-04-15T19:05:04;7.38;;;6.18;;
75603;SDS011;64187;51.010;13.792;2023-04-15T19:10:06;7.90;;;6.32;;
75603;SDS011;64187;51.010;13.792;2023-04-15T19:15:08;10.35;;;8.45;;
75603;SDS011;64187;51.010;13.792;2023-04-15T19:20:07;10.52;;;6.97;;
75603;SDS011;64187;51.010;13.792;2023-04-15T19:25:06;9.63;;;7.97;;
75603;SDS011;64187;51.010;13.792;2023-04-15T19:30:05;10.57;;;7.65;;
75603;SDS011;64187;51.010;13.792;2023-04-15T19:35:05;9.98;;;7.68;;
75603;SDS011;64187;51.010;13.792;2023-04-15T19:40:06;10.25;;;8.10;;
75603;SDS011;64187;51.010;13.792;2023-04-15T19:45:06;10.57;;;8.13;;
75603;SDS011;64187;51.010;13.792;2023-04-15T19:50:06;11.23;;;8.15;;
75603;SDS011;64187;51.010;13.792;2023-04-15T19:55:05;10.90;;;8.18;;
75603;SDS011;64187;51.010;13.792;2023-04-15T20:00:04;9.80;;;8.75;;
75603;SDS011;64187;51.010;13.792;2023-04-15T20:05:04;9.80;;;8.15;;
75603;SDS011;64187;51.010;13.792;2023-04-15T20:10:07;12.73;;;10.68;;
75603;SDS011;64187;51.010;13.792;2023-04-15T20:20:09;11.05;;;8.73;;
75603;SDS011;64187;51.010;13.792;2023-04-15T20:25:08;10.95;;;9.30;;
75603;SDS011;64187;51.010;13.792;2023-04-15T20:30:07;13.00;;;10.00;;
75603;SDS011;64187;51.010;13.792;2023-04-15T20:35:06;12.25;;;9.45;;
75603;SDS011;64187;51.010;13.792;2023-04-15T20:40:06;12.95;;;9.40;;
75603;SDS011;64187;51.010;13.792;2023-04-15T20:45:05;11.48;;;9.90;;
75603;SDS011;64187;51.010;13.792;2023-04-15T20:50:05;11.65;;;9.52;;
75603;SDS011;64187;51.010;13.792;2023-04-15T20:55:05;11.02;;;9.02;;
75603;SDS011;64187;51.010;13.792;2023-04-15T21:00:05;11.43;;;9.55;;
75603;SDS011;64187;51.010;13.792;2023-04-15T21:05:04;11.85;;;10.00;;
75603;SDS011;64187;51.010;13.792;2023-04-15T21:10:03;13.60;;;9.50;;
75603;SDS011;64187;51.010;13.792;2023-04-15T21:15:03;11.95;;;10.25;;
75603;SDS011;64187;51.010;13.792;2023-04-15T21:20:02;13.70;;;11.25;;
75603;SDS011;64187;51.010;13.792;2023-04-15T21:25:01;12.70;;;10.13;;
75603;SDS011;64187;51.010;13.792;2023-04-15T21:30:01;10.80;;;8.63;;
75603;SDS011;64187;51.010;13.792;2023-04-15T21:35:00;11.38;;;9.10;;
75603;SDS011;64187;51.010;13.792;2023-04-15T21:39:59;12.00;;;9.73;;
75603;SDS011;64187;51.010;13.792;2023-04-15T21:44:58;12.40;;;9.05;;
75603;SDS011;64187;51.010;13.792;2023-04-15T21:49:57;12.45;;;10.90;;
75603;SDS011;64187;51.010;13.792;2023-04-15T21:54:56;13.48;;;9.75;;
75603;SDS011;64187;51.010;13.792;2023-04-15T21:59:54;13.52;;;9.90;;
75603;SDS011;64187;51.010;13.792;2023-04-15T22:04:53;13.68;;;9.98;;
75603;SDS011;64187;51.010;13.792;2023-04-15T22:09:52;13.43;;;10.45;;
75603;SDS011;64187;51.010;13.792;2023-04-15T22:14:52;12.40;;;9.80;;
75603;SDS011;64187;51.010;13.792;2023-04-15T22:19:53;13.10;;;10.20;;
75603;SDS011;64187;51.010;13.792;2023-04-15T22:24:52;13.73;;;10.57;;
75603;SDS011;64187;51.010;13.792;2023-04-15T22:29:51;13.27;;;10.32;;
75603;SDS011;64187;51.010;13.792;2023-04-15T22:34:50;13.75;;;10.30;;
75603;SDS011;64187;51.010;13.792;2023-04-15T22:39:49;15.15;;;10.43;;
75603;SDS011;64187;51.010;13.792;2023-04-15T22:44:49;15.15;;;10.38;;
75603;SDS011;64187;51.010;13.792;2023-04-15T22:49:48;16.33;;;10.70;;
75603;SDS011;64187;51.010;13.792;2023-04-15T22:54:47;14.63;;;10.70;;
75603;SDS011;64187;51.010;13.792;2023-04-15T22:59:46;15.75;;;10.80;;
75603;SDS011;64187;51.010;13.792;2023-04-15T23:04:45;15.10;;;11.13;;
75603;SDS011;64187;51.010;13.792;2023-04-15T23:09:44;15.07;;;11.70;;
75603;SDS011;64187;51.010;13.792;2023-04-15T23:14:43;16.13;;;12.05;;
75603;SDS011;64187;51.010;13.792;2023-04-15T23:19:42;16.70;;;12.23;;
75603;SDS011;64187;51.010;13.792;2023-04-15T23:24:41;15.15;;;11.43;;
75603;SDS011;64187;51.010;13.792;2023-04-15T23:29:40;15.20;;;10.80;;
75603;SDS011;64187;51.010;13.792;2023-04-15T23:34:39;14.60;;;9.35;;
75603;SDS011;64187;51.010;13.792;2023-04-15T23:39:39;19.05;;;11.00;;
75603;SDS011;64187;51.010;13.792;2023-04-15T23:44:37;15.10;;;10.63;;
75603;SDS011;64187;51.010;13.792;2023-04-15T23:49:36;15.68;;;11.38;;
75603;SDS011;64187;51.010;13.792;2023-04-15T23:54:38;14.15;;;10.50;;
75603;SDS011;64187;51.010;13.792;2023-04-15T23:59:37;14.55;;;11.02;;
